sensor_id;sensor_type;location;lat;lon;timestamp;P1;durP1;ratioP1;P2;durP2;ratioP2
23252;SDS011;11795;47.054;15.408;2023-02-28T00:00:00;3.3;;;3.0;;
23252;SDS011;11795;47.054;15.408;2023-02-28T00:02:00;4.2;;;3.5;;
23252;SDS011;11795;47.054;15.408;2023-02-28T00:04:00;4.2;;;3.5;;
23252;SDS011;11795;47.054;15.408;2023-02-28T00:06:00;4.2;;;3.5;;
23252;SDS011;11795;47.054;15.408;2023-02-28T00:08:00;4.2;;;3.2;;
23252;SDS011;11795;47.054;15.408;2023-02-28T00:10:00;4.2;;;3.2;;
23252;SDS011;11795;47.054;15.408;2023-02-28T00:12:03;4.0;;;3.3;;
23252;SDS011;11795;47.054;15.408;2023-02-28T00:14:00;4.0;;;3.3;;
23252;SDS011;11795;47.054;15.408;2023-02-28T00:16:00;4.0;;;3.3;;
23252;SDS011;11795;47.054;15.408;2023-02-28T00:18:00;5.4;;;3.6;;
23252;SDS011;11795;47.054;15.408;2023-02-28T00:20:10;5.4;;;3.6;;
23252;SDS011;11795;47.054;15.408;2023-02-28T00:22:00;5.2;;;4.0;;
23252;SDS011;11795;47.054;15.408;2023-02-28T00:24:00;5.2;;;4.0;;
23252;SDS011;11795;47.054;15.408;2023-02-28T00:26:00;5.2;;;4.0;;
23252;SDS011;11795;47.054;15.408;2023-02-28T00:28:00;4.3;;;3.3;;
23252;SDS011;11795;47.054;15.408;2023-02-28T00:30:01;4.3;;;3.3;;
23252;SDS011;11795;47.054;15.408;2023-02-28T00:32:01;4.4;;;3.7;;
23252;SDS011;11795;47.054;15.408;2023-02-28T00:34:00;4.4;;;3.7;;
23252;SDS011;11795;47.054;15.408;2023-02-28T00:36:01;4.4;;;3.7;;
23252;SDS011;11795;47.054;15.408;2023-02-28T00:38:00;3.8;;;3.2;;
23252;SDS011;11795;47.054;15.408;2023-02-28T00:40:00;3.8;;;3.2;;
23252;SDS011;11795;47.054;15.408;2023-02-28T00:42:00;3.8;;;3.4;;
23252;SDS011;11795;47.054;15.408;2023-02-28T00:44:00;3.8;;;3.4;;
23252;SDS011;11795;47.054;15.408;2023-02-28T00:46:00;3.8;;;3.4;;
23252;SDS011;11795;47.054;15.408;2023-02-28T00:48:00;4.2;;;3.4;;
23252;SDS011;11795;47.054;15.408;2023-02-28T00:50:00;4.2;;;3.4;;
23252;SDS011;11795;47.054;15.408;2023-02-28T00:52:00;6.1;;;3.8;;
23252;SDS011;11795;47.054;15.408;2023-02-28T00:54:00;6.1;;;3.8;;
23252;SDS011;11795;47.054;15.408;2023-02-28T00:56:00;6.1;;;3.8;;
23252;SDS011;11795;47.054;15.408;2023-02-28T00:58:00;4.8;;;3.8;;
23252;SDS011;11795;47.054;15.408;2023-02-28T01:00:00;4.8;;;3.8;;
23252;SDS011;11795;47.054;15.408;2023-02-28T01:02:00;4.6;;;3.7;;
23252;SDS011;11795;47.054;15.408;2023-02-28T01:04:00;4.6;;;3.7;;
23252;SDS011;11795;47.054;15.408;2023-02-28T01:06:00;4.6;;;3.7;;
23252;SDS011;11795;47.054;15.408;2023-02-28T01:08:00;4.5;;;3.7;;
23252;SDS011;11795;47.054;15.408;2023-02-28T01:10:00;4.5;;;3.7;;
23252;SDS011;11795;47.054;15.408;2023-02-28T01:12:00;4.9;;;3.5;;
23252;SDS011;11795;47.054;15.408;2023-02-28T01:14:00;4.9;;;3.5;;
23252;SDS011;11795;47.054;15.408;2023-02-28T01:16:00;4.9;;;3.5;;
23252;SDS011;11795;47.054;15.408;2023-02-28T01:18:00;3.6;;;3.2;;
23252;SDS011;11795;47.054;15.408;2023-02-28T01:20:00;3.6;;;3.2;;
23252;SDS011;11795;47.054;15.408;2023-02-28T01:22:00;3.7;;;3.3;;
23252;SDS011;11795;47.054;15.408;2023-02-28T01:24:00;3.7;;;3.3;;
23252;SDS011;11795;47.054;15.408;2023-02-28T01:26:03;3.7;;;3.3;;
23252;SDS011;11795;47.054;15.408;2023-02-28T01:28:00;4.5;;;3.2;;
23252;SDS011;11795;47.054;15.408;2023-02-28T01:30:00;4.5;;;3.2;;
23252;SDS011;11795;47.054;15.408;2023-02-28T01:32:00;3.5;;;3.2;;
23252;SDS011;11795;47.054;15.408;2023-02-28T01:34:00;3.5;;;3.2;;
23252;SDS011;11795;47.054;15.408;2023-02-28T01:36:00;3.5;;;3.2;;
23252;SDS011;11795;47.054;15.408;2023-02-28T01:38:00;3.6;;;3.3;;
23252;SDS011;11795;47.054;15.408;2023-02-28T01:40:00;3.6;;;3.3;;
23252;SDS011;11795;47.054;15.408;2023-02-28T01:42:00;3.8;;;3.4;;
23252;SDS011;11795;47.054;15.408;2023-02-28T01:44:04;3.8;;;3.4;;
23252;SDS011;11795;47.054;15.408;2023-02-28T01:46:00;3.8;;;3.4;;
23252;SDS011;11795;47.054;15.408;2023-02-28T01:48:02;4.0;;;3.6;;
23252;SDS011;11795;47.054;15.408;2023-02-28T01:50:00;4.0;;;3.6;;
23252;SDS011;11795;47.054;15.408;2023-02-28T01:52:00;4.6;;;3.7;;
23252;SDS011;11795;47.054;15.408;2023-02-28T01:54:01;4.6;;;3.7;;
23252;SDS011;11795;47.054;15.408;2023-02-28T01:56:00;4.6;;;3.7;;
23252;SDS011;11795;47.054;15.408;2023-02-28T01:58:02;3.8;;;3.4;;
23252;SDS011;11795;47.054;15.408;2023-02-28T02:00:00;3.8;;;3.4;;
23252;SDS011;11795;47.054;15.408;2023-02-28T02:02:00;3.6;;;3.1;;
23252;SDS011;11795;47.054;15.408;2023-02-28T02:04:01;3.6;;;3.1;;
23252;SDS011;11795;47.054;15.408;2023-02-28T02:06:00;3.6;;;3.1;;
23252;SDS011;11795;47.054;15.408;2023-02-28T02:08:02;3.5;;;3.2;;
23252;SDS011;11795;47.054;15.408;2023-02-28T02:10:00;3.5;;;3.2;;
23252;SDS011;11795;47.054;15.408;2023-02-28T02:12:00;3.5;;;3.0;;
23252;SDS011;11795;47.054;15.408;2023-02-28T02:14:09;3.5;;;3.0;;
23252;SDS011;11795;47.054;15.408;2023-02-28T02:16:03;3.5;;;3.0;;
23252;SDS011;11795;47.054;15.408;2023-02-28T02:18:02;3.8;;;3.3;;
23252;SDS011;11795;47.054;15.408;2023-02-28T02:20:10;3.8;;;3.3;;
23252;SDS011;11795;47.054;15.408;2023-02-28T02:24:11;3.8;;;3.2;;
23252;SDS011;11795;47.054;15.408;2023-02-28T02:26:03;3.8;;;3.2;;
23252;SDS011;11795;47.054;15.408;2023-02-28T02:36:01;5.7;;;4.7;;
23252;SDS011;11795;47.054;15.408;2023-02-28T02:38:02;6.8;;;5.3;;
23252;SDS011;11795;47.054;15.408;2023-02-28T02:40:02;6.8;;;5.3;;
23252;SDS011;11795;47.054;15.408;2023-02-28T02:42:00;6.4;;;5.3;;
23252;SDS011;11795;47.054;15.408;2023-02-28T02:44:01;6.4;;;5.3;;
23252;SDS011;11795;47.054;15.408;2023-02-28T02:46:02;6.4;;;5.3;;
23252;SDS011;11795;47.054;15.408;2023-02-28T02:48:00;7.1;;;5.7;;
23252;SDS011;11795;47.054;15.408;2023-02-28T02:50:02;7.1;;;5.7;;
23252;SDS011;11795;47.054;15.408;2023-02-28T02:52:02;6.4;;;5.1;;
23252;SDS011;11795;47.054;15.408;2023-02-28T02:54:02;6.4;;;5.1;;
23252;SDS011;11795;47.054;15.408;2023-02-28T02:56:00;6.4;;;5.1;;
23252;SDS011;11795;47.054;15.408;2023-02-28T02:58:01;6.7;;;5.8;;
23252;SDS011;11795;47.054;15.408;2023-02-28T03:00:00;6.7;;;5.8;;
23252;SDS011;11795;47.054;15.408;2023-02-28T03:02:02;6.2;;;5.6;;
23252;SDS011;11795;47.054;15.408;2023-02-28T03:04:01;6.2;;;5.6;;
23252;SDS011;11795;47.054;15.408;2023-02-28T03:06:00;6.2;;;5.6;;
23252;SDS011;11795;47.054;15.408;2023-02-28T03:08:03;5.8;;;5.0;;
23252;SDS011;11795;47.054;15.408;2023-02-28T03:10:01;5.8;;;5.0;;
23252;SDS011;11795;47.054;15.408;2023-02-28T03:12:00;5.7;;;4.9;;
23252;SDS011;11795;47.054;15.408;2023-02-28T03:14:04;5.7;;;4.9;;
23252;SDS011;11795;47.054;15.408;2023-02-28T03:16:05;5.7;;;4.9;;
23252;SDS011;11795;47.054;15.408;2023-02-28T03:18:01;6.6;;;5.3;;
23252;SDS011;11795;47.054;15.408;2023-02-28T03:20:02;6.6;;;5.3;;
23252;SDS011;11795;47.054;15.408;2023-02-28T03:22:04;6.3;;;5.3;;
23252;SDS011;11795;47.054;15.408;2023-02-28T03:24:02;6.3;;;5.3;;
23252;SDS011;11795;47.054;15.408;2023-02-28T03:26:02;6.3;;;5.3;;
23252;SDS011;11795;47.054;15.408;2023-02-28T03:28:02;6.6;;;5.8;;
23252;SDS011;11795;47.054;15.408;2023-02-28T03:30:00;6.6;;;5.8;;
23252;SDS011;11795;47.054;15.408;2023-02-28T03:32:02;5.8;;;5.2;;
23252;SDS011;11795;47.054;15.408;2023-02-28T03:34:01;5.8;;;5.2;;
23252;SDS011;11795;47.054;15.408;2023-02-28T03:36:01;5.8;;;5.2;;
23252;SDS011;11795;47.054;15.408;2023-02-28T03:38:05;7.6;;;5.6;;
23252;SDS011;11795;47.054;15.408;2023-02-28T03:40:01;7.6;;;5.6;;
23252;SDS011;11795;47.054;15.408;2023-02-28T03:42:00;6.4;;;5.6;;
23252;SDS011;11795;47.054;15.408;2023-02-28T03:44:02;6.4;;;5.6;;
23252;SDS011;11795;47.054;15.408;2023-02-28T03:46:00;6.4;;;5.6;;
23252;SDS011;11795;47.054;15.408;2023-02-28T03:48:00;7.5;;;5.8;;
23252;SDS011;11795;47.054;15.408;2023-02-28T03:50:01;7.5;;;5.8;;
23252;SDS011;11795;47.054;15.408;2023-02-28T03:52:00;6.2;;;5.2;;
23252;SDS011;11795;47.054;15.408;2023-02-28T03:54:02;6.2;;;5.2;;
23252;SDS011;11795;47.054;15.408;2023-02-28T03:56:01;6.2;;;5.2;;
23252;SDS011;11795;47.054;15.408;2023-02-28T03:58:01;6.8;;;5.9;;
23252;SDS011;11795;47.054;15.408;2023-02-28T04:00:02;6.8;;;5.9;;
23252;SDS011;11795;47.054;15.408;2023-02-28T04:02:00;6.6;;;5.5;;
23252;SDS011;11795;47.054;15.408;2023-02-28T04:04:00;6.6;;;5.5;;
23252;SDS011;11795;47.054;15.408;2023-02-28T04:06:00;6.6;;;5.5;;
23252;SDS011;11795;47.054;15.408;2023-02-28T04:08:04;6.5;;;5.8;;
23252;SDS011;11795;47.054;15.408;2023-02-28T04:10:00;6.5;;;5.8;;
23252;SDS011;11795;47.054;15.408;2023-02-28T04:12:00;6.3;;;5.7;;
23252;SDS011;11795;47.054;15.408;2023-02-28T04:14:00;6.3;;;5.7;;
23252;SDS011;11795;47.054;15.408;2023-02-28T04:16:00;6.3;;;5.7;;
23252;SDS011;11795;47.054;15.408;2023-02-28T04:18:00;6.6;;;5.5;;
23252;SDS011;11795;47.054;15.408;2023-02-28T04:20:00;6.6;;;5.5;;
23252;SDS011;11795;47.054;15.408;2023-02-28T04:22:00;7.0;;;5.6;;
23252;SDS011;11795;47.054;15.408;2023-02-28T04:24:00;7.0;;;5.6;;
23252;SDS011;11795;47.054;15.408;2023-02-28T04:26:00;7.0;;;5.6;;
23252;SDS011;11795;47.054;15.408;2023-02-28T04:28:00;6.9;;;5.6;;
23252;SDS011;11795;47.054;15.408;2023-02-28T04:30:00;6.9;;;5.6;;
23252;SDS011;11795;47.054;15.408;2023-02-28T04:32:00;8.3;;;6.2;;
23252;SDS011;11795;47.054;15.408;2023-02-28T04:34:00;8.3;;;6.2;;
23252;SDS011;11795;47.054;15.408;2023-02-28T04:36:01;8.3;;;6.2;;
23252;SDS011;11795;47.054;15.408;2023-02-28T04:38:00;6.8;;;5.7;;
23252;SDS011;11795;47.054;15.408;2023-02-28T04:40:00;6.8;;;5.7;;
23252;SDS011;11795;47.054;15.408;2023-02-28T04:42:00;8.2;;;5.7;;
23252;SDS011;11795;47.054;15.408;2023-02-28T04:44:00;8.2;;;5.7;;
23252;SDS011;11795;47.054;15.408;2023-02-28T04:46:00;8.2;;;5.7;;
23252;SDS011;11795;47.054;15.408;2023-02-28T04:48:00;7.6;;;6.1;;
23252;SDS011;11795;47.054;15.408;2023-02-28T04:50:00;7.6;;;6.1;;
23252;SDS011;11795;47.054;15.408;2023-02-28T04:52:00;8.3;;;6.2;;
23252;SDS011;11795;47.054;15.408;2023-02-28T04:54:00;8.3;;;6.2;;
23252;SDS011;11795;47.054;15.408;2023-02-28T04:56:00;8.3;;;6.2;;
23252;SDS011;11795;47.054;15.408;2023-02-28T04:58:00;9.5;;;6.7;;
23252;SDS011;11795;47.054;15.408;2023-02-28T05:00:00;9.5;;;6.7;;
23252;SDS011;11795;47.054;15.408;2023-02-28T05:02:00;9.7;;;6.8;;
23252;SDS011;11795;47.054;15.408;2023-02-28T05:04:02;9.7;;;6.8;;
23252;SDS011;11795;47.054;15.408;2023-02-28T05:06:00;9.7;;;6.8;;
23252;SDS011;11795;47.054;15.408;2023-02-28T05:08:00;9.1;;;6.6;;
23252;SDS011;11795;47.054;15.408;2023-02-28T05:10:00;9.1;;;6.6;;
23252;SDS011;11795;47.054;15.408;2023-02-28T05:12:00;7.7;;;6.2;;
23252;SDS011;11795;47.054;15.408;2023-02-28T05:14:00;7.7;;;6.2;;
23252;SDS011;11795;47.054;15.408;2023-02-28T05:16:00;7.7;;;6.2;;
23252;SDS011;11795;47.054;15.408;2023-02-28T05:18:00;7.1;;;6.0;;
23252;SDS011;11795;47.054;15.408;2023-02-28T05:20:00;7.1;;;6.0;;
23252;SDS011;11795;47.054;15.408;2023-02-28T05:22:00;7.8;;;6.6;;
23252;SDS011;11795;47.054;15.408;2023-02-28T05:24:01;7.8;;;6.6;;
23252;SDS011;11795;47.054;15.408;2023-02-28T05:26:00;7.8;;;6.6;;
23252;SDS011;11795;47.054;15.408;2023-02-28T05:28:00;8.6;;;6.8;;
23252;SDS011;11795;47.054;15.408;2023-02-28T05:30:03;8.6;;;6.8;;
23252;SDS011;11795;47.054;15.408;2023-02-28T05:32:00;7.2;;;6.4;;
23252;SDS011;11795;47.054;15.408;2023-02-28T05:34:00;7.2;;;6.4;;
23252;SDS011;11795;47.054;15.408;2023-02-28T05:36:00;7.2;;;6.4;;
23252;SDS011;11795;47.054;15.408;2023-02-28T05:38:00;7.5;;;6.4;;
23252;SDS011;11795;47.054;15.408;2023-02-28T05:40:00;7.5;;;6.4;;
23252;SDS011;11795;47.054;15.408;2023-02-28T05:42:00;9.0;;;6.9;;
23252;SDS011;11795;47.054;15.408;2023-02-28T05:44:00;9.0;;;6.9;;
23252;SDS011;11795;47.054;15.408;2023-02-28T05:46:01;9.0;;;6.9;;
23252;SDS011;11795;47.054;15.408;2023-02-28T05:48:00;9.2;;;7.1;;
23252;SDS011;11795;47.054;15.408;2023-02-28T05:50:01;9.2;;;7.1;;
23252;SDS011;11795;47.054;15.408;2023-02-28T05:52:00;8.3;;;6.2;;
23252;SDS011;11795;47.054;15.408;2023-02-28T05:54:01;8.3;;;6.2;;
23252;SDS011;11795;47.054;15.408;2023-02-28T05:56:00;8.3;;;6.2;;
23252;SDS011;11795;47.054;15.408;2023-02-28T05:58:00;9.5;;;6.7;;
23252;SDS011;11795;47.054;15.408;2023-02-28T06:00:00;9.5;;;6.7;;
23252;SDS011;11795;47.054;15.408;2023-02-28T06:02:00;10.6;;;8.0;;
23252;SDS011;11795;47.054;15.408;2023-02-28T06:04:01;10.6;;;8.0;;
23252;SDS011;11795;47.054;15.408;2023-02-28T06:06:00;10.6;;;8.0;;
23252;SDS011;11795;47.054;15.408;2023-02-28T06:08:00;9.1;;;7.3;;
23252;SDS011;11795;47.054;15.408;2023-02-28T06:10:01;9.1;;;7.3;;
23252;SDS011;11795;47.054;15.408;2023-02-28T06:12:00;11.1;;;7.2;;
23252;SDS011;11795;47.054;15.408;2023-02-28T06:14:01;11.1;;;7.2;;
23252;SDS011;11795;47.054;15.408;2023-02-28T06:16:00;11.1;;;7.2;;
23252;SDS011;11795;47.054;15.408;2023-02-28T06:18:00;10.6;;;7.5;;
23252;SDS011;11795;47.054;15.408;2023-02-28T06:20:00;10.6;;;7.5;;
23252;SDS011;11795;47.054;15.408;2023-02-28T06:22:00;9.3;;;7.6;;
23252;SDS011;11795;47.054;15.408;2023-02-28T06:24:00;9.3;;;7.6;;
23252;SDS011;11795;47.054;15.408;2023-02-28T06:26:00;9.3;;;7.6;;
23252;SDS011;11795;47.054;15.408;2023-02-28T06:28:00;10.7;;;7.7;;
23252;SDS011;11795;47.054;15.408;2023-02-28T06:30:00;10.7;;;7.7;;
23252;SDS011;11795;47.054;15.408;2023-02-28T06:32:00;9.1;;;7.2;;
23252;SDS011;11795;47.054;15.408;2023-02-28T06:34:00;9.1;;;7.2;;
23252;SDS011;11795;47.054;15.408;2023-02-28T06:36:00;9.1;;;7.2;;
23252;SDS011;11795;47.054;15.408;2023-02-28T06:38:00;11.3;;;8.0;;
23252;SDS011;11795;47.054;15.408;2023-02-28T06:40:00;11.3;;;8.0;;
23252;SDS011;11795;47.054;15.408;2023-02-28T06:42:00;11.3;;;8.2;;
23252;SDS011;11795;47.054;15.408;2023-02-28T06:44:00;11.3;;;8.2;;
23252;SDS011;11795;47.054;15.408;2023-02-28T06:46:01;11.3;;;8.2;;
23252;SDS011;11795;47.054;15.408;2023-02-28T06:48:00;9.9;;;7.5;;
23252;SDS011;11795;47.054;15.408;2023-02-28T06:50:01;9.9;;;7.5;;
23252;SDS011;11795;47.054;15.408;2023-02-28T06:52:00;10.2;;;7.9;;
23252;SDS011;11795;47.054;15.408;2023-02-28T06:54:00;10.2;;;7.9;;
23252;SDS011;11795;47.054;15.408;2023-02-28T06:56:03;10.2;;;7.9;;
23252;SDS011;11795;47.054;15.408;2023-02-28T06:58:00;10.1;;;8.0;;
23252;SDS011;11795;47.054;15.408;2023-02-28T07:00:02;10.1;;;8.0;;
23252;SDS011;11795;47.054;15.408;2023-02-28T07:02:02;11.3;;;8.5;;
23252;SDS011;11795;47.054;15.408;2023-02-28T07:04:00;11.3;;;8.5;;
23252;SDS011;11795;47.054;15.408;2023-02-28T07:06:01;11.3;;;8.5;;
23252;SDS011;11795;47.054;15.408;2023-02-28T07:08:01;8.7;;;7.8;;
23252;SDS011;11795;47.054;15.408;2023-02-28T07:10:00;8.7;;;7.8;;
23252;SDS011;11795;47.054;15.408;2023-02-28T07:12:00;10.9;;;8.3;;
23252;SDS011;11795;47.054;15.408;2023-02-28T07:14:00;10.9;;;8.3;;
23252;SDS011;11795;47.054;15.408;2023-02-28T07:16:01;10.9;;;8.3;;
23252;SDS011;11795;47.054;15.408;2023-02-28T07:18:00;11.0;;;8.3;;
23252;SDS011;11795;47.054;15.408;2023-02-28T07:20:00;11.0;;;8.3;;
23252;SDS011;11795;47.054;15.408;2023-02-28T07:22:01;12.0;;;8.7;;
23252;SDS011;11795;47.054;15.408;2023-02-28T07:24:00;12.0;;;8.7;;
23252;SDS011;11795;47.054;15.408;2023-02-28T07:26:00;12.0;;;8.7;;
23252;SDS011;11795;47.054;15.408;2023-02-28T07:28:00;10.7;;;8.2;;
23252;SDS011;11795;47.054;15.408;2023-02-28T07:30:01;10.7;;;8.2;;
23252;SDS011;11795;47.054;15.408;2023-02-28T07:32:00;11.0;;;8.4;;
23252;SDS011;11795;47.054;15.408;2023-02-28T07:34:00;11.0;;;8.4;;
23252;SDS011;11795;47.054;15.408;2023-02-28T07:36:00;11.0;;;8.4;;
23252;SDS011;11795;47.054;15.408;2023-02-28T07:38:00;11.2;;;9.2;;
23252;SDS011;11795;47.054;15.408;2023-02-28T07:40:01;11.2;;;9.2;;
23252;SDS011;11795;47.054;15.408;2023-02-28T07:42:04;12.3;;;9.1;;
23252;SDS011;11795;47.054;15.408;2023-02-28T07:44:00;12.3;;;9.1;;
23252;SDS011;11795;47.054;15.408;2023-02-28T07:46:01;12.3;;;9.1;;
23252;SDS011;11795;47.054;15.408;2023-02-28T07:48:00;10.6;;;8.5;;
23252;SDS011;11795;47.054;15.408;2023-02-28T07:50:00;10.6;;;8.5;;
23252;SDS011;11795;47.054;15.408;2023-02-28T07:52:00;15.4;;;10.6;;
23252;SDS011;11795;47.054;15.408;2023-02-28T07:54:00;15.4;;;10.6;;
23252;SDS011;11795;47.054;15.408;2023-02-28T07:56:01;15.4;;;10.6;;
23252;SDS011;11795;47.054;15.408;2023-02-28T07:58:00;14.7;;;10.8;;
23252;SDS011;11795;47.054;15.408;2023-02-28T08:00:00;14.7;;;10.8;;
23252;SDS011;11795;47.054;15.408;2023-02-28T08:02:00;13.9;;;10.4;;
23252;SDS011;11795;47.054;15.408;2023-02-28T08:04:00;13.9;;;10.4;;
23252;SDS011;11795;47.054;15.408;2023-02-28T08:06:00;13.9;;;10.4;;
23252;SDS011;11795;47.054;15.408;2023-02-28T08:08:00;11.4;;;9.1;;
23252;SDS011;11795;47.054;15.408;2023-02-28T08:10:00;11.4;;;9.1;;
23252;SDS011;11795;47.054;15.408;2023-02-28T08:12:00;10.7;;;8.7;;
23252;SDS011;11795;47.054;15.408;2023-02-28T08:14:00;10.7;;;8.7;;
23252;SDS011;11795;47.054;15.408;2023-02-28T08:16:01;10.7;;;8.7;;
23252;SDS011;11795;47.054;15.408;2023-02-28T08:18:00;11.7;;;9.2;;
23252;SDS011;11795;47.054;15.408;2023-02-28T08:20:00;11.7;;;9.2;;
23252;SDS011;11795;47.054;15.408;2023-02-28T08:22:00;11.5;;;9.0;;
23252;SDS011;11795;47.054;15.408;2023-02-28T08:24:00;11.5;;;9.0;;
23252;SDS011;11795;47.054;15.408;2023-02-28T08:26:00;11.5;;;9.0;;
23252;SDS011;11795;47.054;15.408;2023-02-28T08:28:00;12.3;;;10.0;;
23252;SDS011;11795;47.054;15.408;2023-02-28T08:30:00;12.3;;;10.0;;
23252;SDS011;11795;47.054;15.408;2023-02-28T08:32:00;13.2;;;9.1;;
23252;SDS011;11795;47.054;15.408;2023-02-28T08:34:00;13.2;;;9.1;;
23252;SDS011;11795;47.054;15.408;2023-02-28T08:36:00;13.2;;;9.1;;
23252;SDS011;11795;47.054;15.408;2023-02-28T08:38:00;13.7;;;9.8;;
23252;SDS011;11795;47.054;15.408;2023-02-28T08:40:00;13.7;;;9.8;;
23252;SDS011;11795;47.054;15.408;2023-02-28T08:42:00;11.0;;;9.2;;
23252;SDS011;11795;47.054;15.408;2023-02-28T08:44:00;11.0;;;9.2;;
23252;SDS011;11795;47.054;15.408;2023-02-28T08:46:00;11.0;;;9.2;;
23252;SDS011;11795;47.054;15.408;2023-02-28T08:48:00;11.8;;;9.7;;
23252;SDS011;11795;47.054;15.408;2023-02-28T08:50:00;11.8;;;9.7;;
23252;SDS011;11795;47.054;15.408;2023-02-28T08:52:00;12.8;;;10.0;;
23252;SDS011;11795;47.054;15.408;2023-02-28T08:54:00;12.8;;;10.0;;
23252;SDS011;11795;47.054;15.408;2023-02-28T08:56:02;12.8;;;10.0;;
23252;SDS011;11795;47.054;15.408;2023-02-28T08:58:01;12.1;;;9.1;;
23252;SDS011;11795;47.054;15.408;2023-02-28T09:00:02;12.1;;;9.1;;
23252;SDS011;11795;47.054;15.408;2023-02-28T09:02:00;12.2;;;9.8;;
23252;SDS011;11795;47.054;15.408;2023-02-28T09:04:01;12.2;;;9.8;;
23252;SDS011;11795;47.054;15.408;2023-02-28T09:06:00;12.2;;;9.8;;
23252;SDS011;11795;47.054;15.408;2023-02-28T09:08:00;12.6;;;9.9;;
23252;SDS011;11795;47.054;15.408;2023-02-28T09:10:00;12.6;;;9.9;;
23252;SDS011;11795;47.054;15.408;2023-02-28T09:12:00;11.7;;;9.6;;
23252;SDS011;11795;47.054;15.408;2023-02-28T09:14:00;11.7;;;9.6;;
23252;SDS011;11795;47.054;15.408;2023-02-28T09:16:01;11.7;;;9.6;;
23252;SDS011;11795;47.054;15.408;2023-02-28T09:18:00;11.8;;;9.7;;
23252;SDS011;11795;47.054;15.408;2023-02-28T09:20:00;11.8;;;9.7;;
23252;SDS011;11795;47.054;15.408;2023-02-28T09:22:00;12.5;;;10.8;;
23252;SDS011;11795;47.054;15.408;2023-02-28T09:24:00;12.5;;;10.8;;
23252;SDS011;11795;47.054;15.408;2023-02-28T09:26:00;12.5;;;10.8;;
23252;SDS011;11795;47.054;15.408;2023-02-28T09:28:00;12.6;;;10.1;;
23252;SDS011;11795;47.054;15.408;2023-02-28T09:30:00;12.6;;;10.1;;
23252;SDS011;11795;47.054;15.408;2023-02-28T09:32:00;15.7;;;10.3;;
23252;SDS011;11795;47.054;15.408;2023-02-28T09:34:01;15.7;;;10.3;;
23252;SDS011;11795;47.054;15.408;2023-02-28T09:36:00;15.7;;;10.3;;
23252;SDS011;11795;47.054;15.408;2023-02-28T09:38:02;15.9;;;10.5;;
23252;SDS011;11795;47.054;15.408;2023-02-28T09:40:00;15.9;;;10.5;;
23252;SDS011;11795;47.054;15.408;2023-02-28T09:42:00;12.7;;;10.2;;
23252;SDS011;11795;47.054;15.408;2023-02-28T09:44:01;12.7;;;10.2;;
23252;SDS011;11795;47.054;15.408;2023-02-28T09:46:02;12.7;;;10.2;;
23252;SDS011;11795;47.054;15.408;2023-02-28T09:48:01;13.5;;;9.8;;
23252;SDS011;11795;47.054;15.408;2023-02-28T09:50:03;13.5;;;9.8;;
23252;SDS011;11795;47.054;15.408;2023-02-28T09:52:01;13.8;;;10.4;;
23252;SDS011;11795;47.054;15.408;2023-02-28T09:54:00;13.8;;;10.4;;
23252;SDS011;11795;47.054;15.408;2023-02-28T09:56:01;13.8;;;10.4;;
23252;SDS011;11795;47.054;15.408;2023-02-28T09:58:00;13.9;;;10.9;;
23252;SDS011;11795;47.054;15.408;2023-02-28T10:00:03;13.9;;;10.9;;
23252;SDS011;11795;47.054;15.408;2023-02-28T10:02:02;11.4;;;9.5;;
23252;SDS011;11795;47.054;15.408;2023-02-28T10:04:00;11.4;;;9.5;;
23252;SDS011;11795;47.054;15.408;2023-02-28T10:06:05;11.4;;;9.5;;
23252;SDS011;11795;47.054;15.408;2023-02-28T10:08:03;12.3;;;10.2;;
23252;SDS011;11795;47.054;15.408;2023-02-28T10:10:01;12.3;;;10.2;;
23252;SDS011;11795;47.054;15.408;2023-02-28T10:12:01;13.4;;;11.0;;
23252;SDS011;11795;47.054;15.408;2023-02-28T10:14:02;13.4;;;11.0;;
23252;SDS011;11795;47.054;15.408;2023-02-28T10:16:01;13.4;;;11.0;;
23252;SDS011;11795;47.054;15.408;2023-02-28T10:18:01;13.0;;;10.3;;
23252;SDS011;11795;47.054;15.408;2023-02-28T10:20:02;13.0;;;10.3;;
23252;SDS011;11795;47.054;15.408;2023-02-28T10:22:01;12.9;;;10.8;;
23252;SDS011;11795;47.054;15.408;2023-02-28T10:24:03;12.9;;;10.8;;
23252;SDS011;11795;47.054;15.408;2023-02-28T10:26:08;12.9;;;10.8;;
23252;SDS011;11795;47.054;15.408;2023-02-28T10:28:01;13.8;;;10.5;;
23252;SDS011;11795;47.054;15.408;2023-02-28T10:30:01;13.8;;;10.5;;
23252;SDS011;11795;47.054;15.408;2023-02-28T10:32:01;15.4;;;11.0;;
23252;SDS011;11795;47.054;15.408;2023-02-28T10:34:01;15.4;;;11.0;;
23252;SDS011;11795;47.054;15.408;2023-02-28T10:36:00;15.4;;;11.0;;
23252;SDS011;11795;47.054;15.408;2023-02-28T10:38:00;14.2;;;11.4;;
23252;SDS011;11795;47.054;15.408;2023-02-28T10:40:00;14.2;;;11.4;;
23252;SDS011;11795;47.054;15.408;2023-02-28T10:42:00;14.1;;;11.4;;
23252;SDS011;11795;47.054;15.408;2023-02-28T10:46:01;14.1;;;11.4;;
23252;SDS011;11795;47.054;15.408;2023-02-28T10:48:01;13.4;;;11.3;;
23252;SDS011;11795;47.054;15.408;2023-02-28T10:50:00;13.4;;;11.3;;
23252;SDS011;11795;47.054;15.408;2023-02-28T10:52:00;13.4;;;11.1;;
23252;SDS011;11795;47.054;15.408;2023-02-28T10:54:00;13.4;;;11.1;;
23252;SDS011;11795;47.054;15.408;2023-02-28T10:56:01;13.4;;;11.1;;
23252;SDS011;11795;47.054;15.408;2023-02-28T10:58:00;14.2;;;11.4;;
23252;SDS011;11795;47.054;15.408;2023-02-28T11:00:06;14.2;;;11.4;;
23252;SDS011;11795;47.054;15.408;2023-02-28T11:02:00;14.3;;;11.2;;
23252;SDS011;11795;47.054;15.408;2023-02-28T11:04:00;14.3;;;11.2;;
23252;SDS011;11795;47.054;15.408;2023-02-28T11:06:04;14.3;;;11.2;;
23252;SDS011;11795;47.054;15.408;2023-02-28T11:08:03;14.5;;;11.4;;
23252;SDS011;11795;47.054;15.408;2023-02-28T11:10:00;14.5;;;11.4;;
23252;SDS011;11795;47.054;15.408;2023-02-28T11:12:00;13.6;;;11.2;;
23252;SDS011;11795;47.054;15.408;2023-02-28T11:14:02;13.6;;;11.2;;
23252;SDS011;11795;47.054;15.408;2023-02-28T11:16:00;13.6;;;11.2;;
23252;SDS011;11795;47.054;15.408;2023-02-28T11:18:04;14.0;;;11.1;;
23252;SDS011;11795;47.054;15.408;2023-02-28T11:20:04;14.0;;;11.1;;
23252;SDS011;11795;47.054;15.408;2023-02-28T11:22:01;14.7;;;11.9;;
23252;SDS011;11795;47.054;15.408;2023-02-28T11:24:01;14.7;;;11.9;;
23252;SDS011;11795;47.054;15.408;2023-02-28T11:26:01;14.7;;;11.9;;
23252;SDS011;11795;47.054;15.408;2023-02-28T11:28:02;15.5;;;11.8;;
23252;SDS011;11795;47.054;15.408;2023-02-28T11:30:00;15.5;;;11.8;;
23252;SDS011;11795;47.054;15.408;2023-02-28T11:32:01;14.8;;;11.7;;
23252;SDS011;11795;47.054;15.408;2023-02-28T11:34:00;14.8;;;11.7;;
23252;SDS011;11795;47.054;15.408;2023-02-28T11:36:01;14.8;;;11.7;;
23252;SDS011;11795;47.054;15.408;2023-02-28T11:38:00;15.0;;;11.7;;
23252;SDS011;11795;47.054;15.408;2023-02-28T11:40:00;15.0;;;11.7;;
23252;SDS011;11795;47.054;15.408;2023-02-28T11:42:09;14.3;;;11.6;;
23252;SDS011;11795;47.054;15.408;2023-02-28T11:44:04;14.3;;;11.6;;
23252;SDS011;11795;47.054;15.408;2023-02-28T11:46:04;14.3;;;11.6;;
23252;SDS011;11795;47.054;15.408;2023-02-28T11:48:01;13.3;;;11.2;;
23252;SDS011;11795;47.054;15.408;2023-02-28T11:50:09;13.3;;;11.2;;
23252;SDS011;11795;47.054;15.408;2023-02-28T11:52:01;15.2;;;12.0;;
23252;SDS011;11795;47.054;15.408;2023-02-28T11:54:08;15.2;;;12.0;;
23252;SDS011;11795;47.054;15.408;2023-02-28T11:56:01;15.2;;;12.0;;
23252;SDS011;11795;47.054;15.408;2023-02-28T12:00:03;15.6;;;12.3;;
23252;SDS011;11795;47.054;15.408;2023-02-28T12:02:05;14.9;;;11.5;;
23252;SDS011;11795;47.054;15.408;2023-02-28T12:04:04;14.9;;;11.5;;
23252;SDS011;11795;47.054;15.408;2023-02-28T12:06:04;14.9;;;11.5;;
23252;SDS011;11795;47.054;15.408;2023-02-28T12:08:03;15.2;;;12.0;;
23252;SDS011;11795;47.054;15.408;2023-02-28T12:10:02;15.2;;;12.0;;
23252;SDS011;11795;47.054;15.408;2023-02-28T12:12:02;14.6;;;12.1;;
23252;SDS011;11795;47.054;15.408;2023-02-28T12:14:14;14.6;;;12.1;;
23252;SDS011;11795;47.054;15.408;2023-02-28T12:16:06;14.6;;;12.1;;
23252;SDS011;11795;47.054;15.408;2023-02-28T12:18:04;17.7;;;12.9;;